Time;durP1;ratioP1;P1;durP2;ratioP2;P2;SDS_P1;SDS_P2;PMS_P1;PMS_P2;Temp;Humidity;BMP_temperature;BMP_pressure;BME280_temperature;BME280_humidity;BME280_pressure;Samples;Min_cycle;Max_cycle;Signal;HPM_P1;HPM_P2
2022/08/04 00:02:20;;;;;;;5.63;1.97;;;19.10;99.90;;;;;;5091050;28;20684;-69
2022/08/04 00:05:04;;;;;;;5.73;1.87;;;19.20;99.90;;;;;;5097109;28;20174;-70
2022/08/04 00:07:55;;;;;;;10.57;1.70;;;19.20;99.90;;;;;;5102685;28;20179;-70
2022/08/04 00:10:23;;;;;;;5.70;2.17;;;19.30;99.90;;;;;;5088201;28;20179;-71
2022/08/04 00:12:53;;;;;;;5.37;2.27;;;19.40;99.90;;;;;;5090817;28;20185;-71
2022/08/04 00:15:22;;;;;;;6.17;2.20;;;19.50;99.90;;;;;;5090849;28;20199;-71
2022/08/04 00:17:59;;;;;;;6.20;2.13;;;19.50;99.90;;;;;;5103228;28;20174;-71
2022/08/04 00:20:33;;;;;;;16.03;2.47;;;19.60;99.90;;;;;;5090912;28;20187;-71
2022/08/04 00:23:02;;;;;;;8.07;2.43;;;19.70;99.90;;;;;;5090818;28;20539;-71
2022/08/04 00:25:30;;;;;;;8.00;2.20;;;19.80;99.90;;;;;;5091075;28;20182;-71
2022/08/04 00:27:59;;;;;;;12.73;2.50;;;19.90;99.90;;;;;;5090682;28;20170;-71
2022/08/04 00:30:27;;;;;;;12.17;2.60;;;20.00;99.90;;;;;;5107324;28;20563;-70
2022/08/04 00:32:57;;;;;;;11.77;3.03;;;20.10;99.90;;;;;;5095583;28;20243;-70
2022/08/04 00:35:25;;;;;;;6.73;2.03;;;20.10;99.90;;;;;;5094596;28;20271;-70
2022/08/04 00:37:54;;;;;;;4.90;1.83;;;20.10;99.90;;;;;;5090081;28;20189;-70
2022/08/04 00:40:42;;;;;;;7.17;2.07;;;20.20;99.90;;;;;;5094155;28;20187;-70
2022/08/04 00:43:42;;;;;;;9.10;2.60;;;20.30;99.90;;;;;;5094164;28;20197;-70
2022/08/04 00:46:45;;;;;;;2.97;1.70;;;20.30;99.90;;;;;;5094166;28;20559;-71
2022/08/04 00:49:22;;;;;;;9.83;2.30;;;20.20;99.90;;;;;;5095265;28;20181;-71
2022/08/04 00:52:07;;;;;;;7.93;1.90;;;20.10;99.90;;;;;;5109065;28;20278;-70
2022/08/04 00:55:00;;;;;;;7.83;2.10;;;20.00;99.90;;;;;;5098839;28;20179;-69
2022/08/04 00:58:03;;;;;;;7.70;2.40;;;20.10;99.90;;;;;;5094128;28;20652;-71
2022/08/04 01:00:58;;;;;;;10.23;2.70;;;20.10;99.90;;;;;;5104165;28;20181;-71
2022/08/04 01:03:46;;;;;;;6.40;2.53;;;20.10;99.90;;;;;;5099952;28;20190;-71
2022/08/04 01:06:37;;;;;;;5.30;2.37;;;20.10;99.90;;;;;;5106744;28;20195;-71
2022/08/04 01:09:04;;;;;;;6.50;2.10;;;20.10;99.90;;;;;;5113689;28;20292;-71
2022/08/04 01:11:49;;;;;;;4.10;1.97;;;20.20;99.90;;;;;;5101639;28;20630;-70
2022/08/04 01:14:55;;;;;;;6.00;2.20;;;20.20;99.90;;;;;;5094632;28;20190;-69
2022/08/04 01:17:43;;;;;;;7.93;2.30;;;20.20;99.90;;;;;;5093579;28;20193;-69
2022/08/04 01:20:14;;;;;;;4.77;1.90;;;20.30;99.90;;;;;;5104931;28;20271;-70
2022/08/04 01:23:05;;;;;;;8.90;2.17;;;20.40;99.90;;;;;;5093610;28;20692;-72
2022/08/04 01:26:03;;;;;;;6.50;1.90;;;20.30;99.90;;;;;;5093551;28;20181;-70
2022/08/04 01:28:36;;;;;;;9.97;1.90;;;20.20;99.90;;;;;;5093627;28;20549;-71
2022/08/04 01:31:25;;;;;;;6.43;2.03;;;20.10;99.90;;;;;;5093343;28;20224;-71
2022/08/04 01:34:00;;;;;;;4.27;1.90;;;20.20;99.90;;;;;;5093520;28;20208;-69
2022/08/04 01:36:31;;;;;;;4.70;1.90;;;20.20;99.90;;;;;;5093375;28;20197;-71
2022/08/04 01:39:39;;;;;;;4.63;1.77;;;20.30;99.90;;;;;;5093246;28;20242;-71
2022/08/04 01:41:48;;;;;;;5.97;2.27;;;20.30;99.90;;;;;;5092756;28;20319;-70
2022/08/04 01:44:18;;;;;;;7.80;2.37;;;20.40;99.90;;;;;;5093122;28;20211;-71
2022/08/04 01:46:49;;;;;;;9.40;2.40;;;20.50;99.90;;;;;;5093080;28;20264;-70
2022/08/04 01:49:20;;;;;;;5.77;1.60;;;20.50;99.90;;;;;;5093873;28;20935;-71
2022/08/04 01:51:51;;;;;;;5.57;1.67;;;20.50;99.90;;;;;;5094043;28;20199;-70
2022/08/04 01:54:19;;;;;;;6.80;1.57;;;20.50;99.90;;;;;;5075150;28;20185;-70
2022/08/04 01:56:48;;;;;;;6.57;1.40;;;20.60;99.90;;;;;;5072602;28;20184;-71
2022/08/04 01:59:19;;;;;;;3.83;1.50;;;20.70;99.90;;;;;;5091576;28;20195;-71
2022/08/04 02:01:47;;;;;;;2.87;1.13;;;20.70;99.90;;;;;;5105944;28;20220;-71
2022/08/04 02:04:19;;;;;;;5.53;1.17;;;20.70;99.90;;;;;;5113180;28;20175;-71
2022/08/04 02:06:47;;;;;;;6.13;1.63;;;20.80;99.90;;;;;;5112709;28;20266;-71
2022/08/04 02:09:37;;;;;;;3.03;1.97;;;20.80;99.90;;;;;;5113182;28;20182;-70
2022/08/04 02:12:14;;;;;;;3.80;1.87;;;20.70;99.90;;;;;;5097054;28;20183;-71
2022/08/04 02:15:03;;;;;;;10.03;1.83;;;20.80;99.90;;;;;;5092564;28;20568;-72
2022/08/04 02:18:04;;;;;;;5.80;1.90;;;20.80;99.90;;;;;;5074334;28;20225;-71
2022/08/04 02:20:42;;;;;;;2.60;1.27;;;20.70;99.90;;;;;;5094625;28;20245;-71
2022/08/04 02:23:28;;;;;;;4.20;1.27;;;20.70;99.90;;;;;;5109547;28;20589;-71
2022/08/04 02:26:02;;;;;;;8.73;1.60;;;20.60;99.90;;;;;;5112859;28;20766;-71
2022/08/04 02:28:32;;;;;;;5.83;1.80;;;20.60;99.90;;;;;;5112747;28;20702;-71
2022/08/04 02:31:15;;;;;;;7.43;2.30;;;20.60;99.90;;;;;;5111146;28;20173;-70
2022/08/04 02:33:46;;;;;;;6.63;1.80;;;20.50;99.90;;;;;;5101481;28;20191;-71
2022/08/04 02:36:34;;;;;;;4.13;1.93;;;20.50;99.90;;;;;;5101606;28;20254;-71
2022/08/04 02:39:05;;;;;;;4.83;1.33;;;20.50;99.90;;;;;;5112671;28;20617;-71
2022/08/04 02:41:34;;;;;;;4.77;1.23;;;20.50;99.90;;;;;;5092140;28;20214;-71
2022/08/04 02:44:07;;;;;;;4.80;1.57;;;20.40;99.90;;;;;;5112172;28;20170;-71
2022/08/04 02:46:37;;;;;;;2.40;1.37;;;20.40;99.90;;;;;;5112349;28;20645;-71
2022/08/04 02:49:10;;;;;;;1.63;0.83;;;20.40;99.90;;;;;;5104833;28;20187;-73
2022/08/04 02:51:42;;;;;;;1.43;1.00;;;20.40;99.90;;;;;;5093287;28;20185;-72
2022/08/04 02:54:10;;;;;;;3.63;1.30;;;20.40;99.90;;;;;;5091920;28;20178;-72
2022/08/04 02:56:39;;;;;;;1.63;1.03;;;20.50;99.90;;;;;;5092365;28;20179;-72
2022/08/04 02:59:12;;;;;;;2.10;1.17;;;20.60;99.90;;;;;;5111028;28;20615;-72
2022/08/04 03:01:41;;;;;;;4.83;1.27;;;20.60;99.90;;;;;;5113037;28;20659;-72
2022/08/04 03:04:35;;;;;;;2.67;1.37;;;20.70;99.90;;;;;;5113230;28;20203;-73
2022/08/04 03:07:19;;;;;;;10.80;1.37;;;20.70;99.90;;;;;;5113753;28;20187;-71
2022/08/04 03:10:20;;;;;;;2.20;1.10;;;20.80;99.90;;;;;;5093507;28;20206;-71
2022/08/04 03:13:24;;;;;;;2.93;1.17;;;20.70;99.90;;;;;;5093271;28;20247;-71
2022/08/04 03:16:36;;;;;;;2.20;1.20;;;20.60;99.90;;;;;;5093313;28;20179;-70
2022/08/04 03:19:18;;;;;;;4.30;1.27;;;20.60;99.90;;;;;;5096709;28;20190;-70
2022/08/04 03:22:06;;;;;;;3.23;1.40;;;20.50;99.90;;;;;;5113335;28;20619;-71
2022/08/04 03:24:42;;;;;;;2.43;0.80;;;20.50;99.90;;;;;;5113047;28;20178;-69
2022/08/04 03:27:59;;;;;;;7.40;1.33;;;20.40;99.90;;;;;;5113127;28;20641;-69
2022/08/04 03:31:02;;;;;;;4.90;1.30;;;20.50;99.90;;;;;;5009534;28;20190;-70
2022/08/04 03:34:05;;;;;;;2.10;1.50;;;20.40;99.90;;;;;;5092443;28;20191;-69
2022/08/04 03:37:07;;;;;;;2.37;1.30;;;20.40;99.90;;;;;;5093146;28;20574;-69
2022/08/04 03:39:56;;;;;;;7.47;1.70;;;20.40;99.90;;;;;;5092703;28;20167;-69
2022/08/04 03:43:02;;;;;;;2.93;1.10;;;20.40;99.90;;;;;;5092820;28;20203;-69
2022/08/04 03:46:02;;;;;;;1.97;1.13;;;20.50;99.90;;;;;;5051490;28;20203;-69
2022/08/04 03:49:09;;;;;;;3.33;1.30;;;20.50;99.90;;;;;;5092811;28;20175;-71
2022/08/04 03:55:16;;;;;;;3.97;1.37;;;20.50;99.90;;;;;;5058187;28;20738;-70
2022/08/04 03:58:12;;;;;;;4.60;1.47;;;20.50;99.90;;;;;;5074587;28;20193;-70
2022/08/04 04:01:01;;;;;;;2.77;1.50;;;20.40;99.90;;;;;;5092590;28;20175;-71
2022/08/04 04:04:13;;;;;;;3.93;1.33;;;20.40;99.90;;;;;;5092652;28;20509;-70
2022/08/04 04:06:59;;;;;;;3.13;1.33;;;20.50;99.90;;;;;;5094605;28;20590;-68
2022/08/04 04:09:36;;;;;;;3.87;1.20;;;20.40;99.90;;;;;;5096462;28;20215;-69
2022/08/04 04:12:24;;;;;;;3.70;1.30;;;20.40;99.90;;;;;;5096272;28;20603;-69
2022/08/04 04:14:55;;;;;;;2.20;1.07;;;20.40;99.90;;;;;;5078340;28;20197;-68
2022/08/04 04:17:40;;;;;;;3.40;1.43;;;20.40;99.90;;;;;;5096471;28;20179;-69
2022/08/04 04:20:17;;;;;;;4.37;1.60;;;20.50;99.90;;;;;;5096273;28;20173;-68
2022/08/04 04:22:54;;;;;;;6.53;1.80;;;20.50;99.90;;;;;;5096051;28;20237;-69
2022/08/04 04:25:31;;;;;;;2.67;1.40;;;20.50;99.90;;;;;;5095836;28;20253;-68
2022/08/04 04:28:29;;;;;;;4.90;1.53;;;20.50;99.90;;;;;;5095885;28;20221;-68
2022/08/04 04:31:34;;;;;;;5.17;1.40;;;20.50;99.90;;;;;;5096158;28;20750;-68
2022/08/04 04:34:34;;;;;;;6.57;2.07;;;20.50;99.90;;;;;;5095786;28;20669;-68
2022/08/04 04:37:13;;;;;;;2.67;1.70;;;20.50;99.90;;;;;;5077803;28;20180;-69
2022/08/04 04:40:09;;;;;;;3.37;1.80;;;20.50;99.90;;;;;;5095657;28;20172;-70
2022/08/04 04:43:08;;;;;;;4.17;1.60;;;20.50;99.90;;;;;;5096021;28;20253;-68
2022/08/04 04:46:06;;;;;;;4.47;1.70;;;20.50;99.90;;;;;;5095749;28;20174;-69
2022/08/04 04:48:45;;;;;;;4.63;1.63;;;20.50;99.90;;;;;;5095611;28;20175;-69
2022/08/04 04:51:32;;;;;;;3.47;1.70;;;20.40;99.90;;;;;;5095564;28;20227;-70
2022/08/04 04:54:28;;;;;;;4.87;1.77;;;20.40;99.90;;;;;;5099484;28;20168;-69
2022/08/04 04:57:14;;;;;;;4.40;1.70;;;20.50;99.90;;;;;;5107919;28;20181;-67
2022/08/04 04:59:59;;;;;;;6.50;1.90;;;20.40;99.90;;;;;;5111124;28;20197;-69
2022/08/04 05:02:33;;;;;;;3.97;1.80;;;20.40;99.90;;;;;;5090932;28;20272;-68
2022/08/04 05:05:03;;;;;;;4.13;1.80;;;20.30;99.90;;;;;;5110881;28;20159;-69
2022/08/04 05:07:51;;;;;;;4.97;2.00;;;20.20;99.90;;;;;;5095781;28;20667;-70
2022/08/04 05:10:22;;;;;;;9.47;2.30;;;20.20;99.90;;;;;;5095119;28;20164;-69
2022/08/04 05:13:19;;;;;;;3.27;1.80;;;20.10;99.90;;;;;;5095326;28;20255;-68
2022/08/04 05:15:50;;;;;;;4.27;1.53;;;20.10;99.90;;;;;;5086372;28;20317;-69
2022/08/04 05:18:26;;;;;;;6.83;3.67;;;20.20;99.90;;;;;;5094802;28;20174;-69
2022/08/04 05:21:06;;;;;;;6.60;2.07;;;20.20;99.90;;;;;;5094994;28;20221;-70
2022/08/04 05:23:41;;;;;;;4.20;1.63;;;20.20;99.90;;;;;;5094878;28;20736;-69
2022/08/04 05:26:12;;;;;;;5.90;1.87;;;20.20;99.90;;;;;;5094883;28;20206;-70
2022/08/04 05:28:56;;;;;;;16.10;1.90;;;20.20;99.90;;;;;;5095094;28;20676;-70
2022/08/04 05:31:39;;;;;;;2.73;1.50;;;20.20;99.90;;;;;;5094596;28;20223;-69
2022/08/04 05:34:28;;;;;;;5.20;1.73;;;20.20;99.90;;;;;;5076805;28;20649;-69
2022/08/04 05:37:08;;;;;;;4.83;1.70;;;20.10;99.90;;;;;;5095197;28;20176;-69
2022/08/04 05:39:47;;;;;;;6.80;1.80;;;20.10;99.90;;;;;;5094890;28;20175;-69
2022/08/04 05:42:15;;;;;;;4.03;1.77;;;20.00;99.90;;;;;;5094562;28;20209;-69
2022/08/04 05:44:44;;;;;;;4.63;1.80;;;20.00;99.90;;;;;;5094440;28;20244;-68
2022/08/04 05:47:12;;;;;;;6.00;2.10;;;20.00;99.90;;;;;;5103317;28;20186;-69
2022/08/04 05:49:41;;;;;;;4.00;2.10;;;19.90;99.90;;;;;;5102999;28;20175;-69
2022/08/04 05:52:11;;;;;;;5.97;2.47;;;19.80;99.90;;;;;;5099977;28;20275;-69
2022/08/04 05:54:41;;;;;;;9.97;3.00;;;19.70;99.90;;;;;;5094287;28;20175;-69
2022/08/04 05:57:10;;;;;;;5.77;2.93;;;19.70;99.90;;;;;;5094492;28;20230;-69
2022/08/04 05:59:45;;;;;;;6.47;2.43;;;19.70;99.90;;;;;;5094316;28;20550;-68
2022/08/04 06:02:16;;;;;;;7.03;2.90;;;19.50;99.90;;;;;;5104046;28;20210;-68
2022/08/04 06:04:48;;;;;;;3.83;2.40;;;19.40;99.90;;;;;;5114436;28;20219;-69
2022/08/04 06:07:17;;;;;;;7.00;2.50;;;19.30;99.90;;;;;;5109885;28;20184;-69
2022/08/04 06:09:45;;;;;;;5.23;2.10;;;19.20;99.90;;;;;;5094239;28;20171;-69
2022/08/04 06:12:27;;;;;;;4.83;2.17;;;19.20;99.90;;;;;;5094768;28;20176;-69
2022/08/04 06:14:59;;;;;;;3.60;1.97;;;19.10;99.90;;;;;;5093892;28;20596;-70
2022/08/04 06:17:43;;;;;;;9.20;2.30;;;19.00;99.90;;;;;;5073481;28;20186;-69
2022/08/04 06:20:13;;;;;;;4.43;2.03;;;18.80;99.90;;;;;;5073820;28;20168;-69
2022/08/04 06:22:44;;;;;;;5.47;2.50;;;18.60;99.90;;;;;;5087869;28;20215;-69
2022/08/04 06:25:16;;;;;;;8.33;2.60;;;18.60;99.90;;;;;;5093935;28;20166;-69
2022/08/04 06:27:45;;;;;;;5.53;2.20;;;18.50;99.90;;;;;;5093860;28;20176;-69
2022/08/04 06:30:13;;;;;;;6.90;2.27;;;18.40;99.90;;;;;;5093840;28;20635;-69
2022/08/04 06:32:47;;;;;;;4.13;2.27;;;18.40;99.90;;;;;;5104423;28;20281;-68
2022/08/04 06:35:18;;;;;;;5.00;2.40;;;18.50;99.90;;;;;;5109401;28;20175;-65
2022/08/04 06:37:47;;;;;;;5.27;1.87;;;18.40;99.90;;;;;;5113747;28;20300;-69
2022/08/04 06:40:18;;;;;;;6.53;2.03;;;18.60;99.90;;;;;;5114080;28;20244;-70
2022/08/04 06:42:48;;;;;;;4.63;2.20;;;18.60;99.90;;;;;;5113857;28;20205;-67
2022/08/04 06:45:17;;;;;;;5.90;2.10;;;18.70;99.90;;;;;;5095629;28;20171;-66
2022/08/04 06:47:47;;;;;;;5.30;2.40;;;18.70;99.90;;;;;;5113736;28;20268;-67
2022/08/04 06:50:15;;;;;;;5.43;2.40;;;18.70;99.90;;;;;;5113779;28;20170;-67
2022/08/04 06:52:45;;;;;;;5.03;2.30;;;18.70;99.90;;;;;;5113707;28;20703;-66
2022/08/04 06:55:13;;;;;;;4.90;2.17;;;18.70;99.90;;;;;;5113803;28;20257;-66
2022/08/04 06:57:42;;;;;;;6.67;2.70;;;18.60;99.90;;;;;;5114139;28;20514;-67
2022/08/04 07:00:16;;;;;;;4.63;2.67;;;18.50;99.90;;;;;;5113580;28;20645;-70
2022/08/04 07:02:53;;;;;;;7.50;3.00;;;18.30;99.90;;;;;;5113500;28;20210;-71
2022/08/04 07:05:21;;;;;;;9.10;2.87;;;18.10;99.90;;;;;;5113656;28;20204;-70
2022/08/04 07:07:49;;;;;;;7.20;2.87;;;17.90;99.90;;;;;;5113693;28;20540;-68
2022/08/04 07:10:18;;;;;;;6.27;2.80;;;17.70;99.90;;;;;;5113498;28;20174;-70
2022/08/04 07:12:47;;;;;;;10.70;3.00;;;17.70;99.90;;;;;;5113374;28;20170;-70
2022/08/04 07:15:16;;;;;;;4.03;2.43;;;17.60;99.90;;;;;;5113723;28;20219;-71
2022/08/04 07:17:45;;;;;;;5.80;2.90;;;17.50;99.90;;;;;;5113556;28;20174;-71
2022/08/04 07:20:13;;;;;;;4.97;2.97;;;17.40;99.90;;;;;;5113483;28;20245;-71
2022/08/04 07:22:43;;;;;;;6.97;2.90;;;17.40;99.90;;;;;;5113179;28;20206;-71
2022/08/04 07:25:12;;;;;;;6.93;3.20;;;17.30;99.90;;;;;;5113310;28;20203;-70
2022/08/04 07:27:39;;;;;;;6.40;3.00;;;17.30;99.90;;;;;;5113313;28;20261;-69
2022/08/04 07:30:08;;;;;;;6.00;3.23;;;17.20;99.90;;;;;;5113375;28;20167;-69
2022/08/04 07:32:38;;;;;;;6.87;3.03;;;17.30;99.90;;;;;;5113069;28;20223;-70
2022/08/04 07:35:07;;;;;;;7.77;3.20;;;17.30;99.90;;;;;;5094904;28;20181;-69
2022/08/04 07:37:35;;;;;;;6.17;3.03;;;17.30;99.90;;;;;;5113200;28;20178;-70
2022/08/04 07:40:04;;;;;;;2.53;2.30;;;17.30;99.90;;;;;;5114291;28;20257;-68
2022/08/04 07:42:32;;;;;;;5.47;2.53;;;17.30;99.90;;;;;;5117361;28;20206;-70
2022/08/04 07:45:00;;;;;;;4.63;3.27;;;17.40;99.90;;;;;;5117540;28;20182;-70
2022/08/04 07:47:27;;;;;;;5.37;2.90;;;17.40;99.90;;;;;;5117535;28;20187;-70
2022/08/04 07:49:55;;;;;;;3.63;2.50;;;17.40;99.90;;;;;;5117310;28;20167;-69
2022/08/04 07:52:25;;;;;;;6.80;2.80;;;17.40;99.90;;;;;;5117281;28;20182;-70
2022/08/04 07:54:53;;;;;;;10.37;3.60;;;17.30;99.90;;;;;;5117160;28;20210;-68
2022/08/04 07:57:21;;;;;;;7.53;3.27;;;17.30;99.90;;;;;;5117222;28;20174;-70
2022/08/04 07:59:49;;;;;;;6.30;3.57;;;17.20;99.90;;;;;;5117039;28;20557;-69
2022/08/04 08:02:20;;;;;;;4.90;3.00;;;17.20;99.90;;;;;;5117293;28;20241;-71
2022/08/04 08:04:49;;;;;;;6.93;3.43;;;17.10;99.90;;;;;;5098803;28;20227;-70
2022/08/04 08:07:19;;;;;;;4.83;2.93;;;17.10;99.90;;;;;;5098630;28;20186;-70
2022/08/04 08:09:47;;;;;;;6.00;3.43;;;17.10;99.90;;;;;;5117000;28;20190;-70
2022/08/04 08:12:15;;;;;;;6.13;2.83;;;17.00;99.90;;;;;;5117002;28;20185;-71
2022/08/04 08:14:44;;;;;;;4.20;3.10;;;17.00;99.90;;;;;;5117011;28;20630;-68
2022/08/04 08:17:12;;;;;;;4.67;3.00;;;17.00;99.90;;;;;;5116876;28;20261;-68
2022/08/04 08:19:40;;;;;;;4.93;3.37;;;17.00;99.90;;;;;;5116886;28;20170;-71
2022/08/04 08:22:10;;;;;;;6.50;2.67;;;17.00;99.90;;;;;;5116614;28;20218;-71
2022/08/04 08:24:38;;;;;;;5.10;2.90;;;17.00;99.90;;;;;;5116765;28;20231;-68
2022/08/04 08:27:07;;;;;;;5.00;2.53;;;17.10;99.90;;;;;;5116610;28;20175;-71
2022/08/04 08:29:37;;;;;;;2.60;2.40;;;17.10;99.90;;;;;;5116671;28;20174;-66
2022/08/04 08:32:06;;;;;;;3.67;2.40;;;17.10;99.90;;;;;;5116435;28;20306;-70
2022/08/04 08:34:34;;;;;;;3.13;2.83;;;17.10;99.90;;;;;;5116802;28;20171;-71
2022/08/04 08:37:23;;;;;;;3.60;2.60;;;17.10;99.90;;;;;;5116664;28;20266;-70
2022/08/04 08:40:27;;;;;;;4.20;2.40;;;17.10;99.90;;;;;;5116782;28;20621;-70
2022/08/04 08:43:10;;;;;;;4.60;2.57;;;17.10;99.90;;;;;;5091804;28;20214;-69
2022/08/04 08:45:58;;;;;;;5.70;2.50;;;17.10;99.90;;;;;;5116866;28;20178;-67
2022/08/04 08:48:50;;;;;;;6.60;2.83;;;17.10;99.90;;;;;;5116367;28;20643;-71
2022/08/04 08:51:49;;;;;;;4.40;2.97;;;17.10;99.90;;;;;;5115812;28;20178;-69
2022/08/04 08:54:28;;;;;;;7.10;3.33;;;17.10;99.90;;;;;;5116385;28;20178;-70
2022/08/04 08:57:20;;;;;;;5.93;2.47;;;17.10;99.90;;;;;;5097820;28;20512;-71
2022/08/04 09:00:09;;;;;;;4.57;2.33;;;17.10;99.90;;;;;;5116365;28;20170;-70
2022/08/04 09:02:57;;;;;;;3.07;2.10;;;17.00;99.90;;;;;;5115837;28;20203;-71
2022/08/04 09:05:55;;;;;;;3.57;2.13;;;17.00;99.90;;;;;;5116068;28;20175;-71
2022/08/04 09:08:42;;;;;;;3.80;1.80;;;17.00;99.90;;;;;;5115831;28;20205;-70
2022/08/04 09:11:20;;;;;;;4.00;2.20;;;17.00;99.90;;;;;;5116086;28;20167;-71
2022/08/04 09:14:22;;;;;;;3.73;1.63;;;17.00;99.90;;;;;;5115801;28;20178;-71
2022/08/04 09:17:04;;;;;;;4.63;1.53;;;17.00;99.90;;;;;;5105888;28;20210;-71
2022/08/04 09:19:44;;;;;;;7.17;1.97;;;17.00;99.90;;;;;;5115578;28;20184;-72
2022/08/04 09:22:32;;;;;;;1.90;1.50;;;17.10;99.90;;;;;;5115433;28;20209;-71
2022/08/04 09:25:03;;;;;;;1.87;1.50;;;17.10;99.90;;;;;;5115774;28;20644;-72
2022/08/04 09:27:53;;;;;;;2.30;1.40;;;17.00;99.90;;;;;;5097240;28;20545;-68
2022/08/04 09:30:52;;;;;;;1.30;1.20;;;17.00;99.90;;;;;;5115258;28;20198;-70
2022/08/04 09:33:37;;;;;;;2.33;1.40;;;17.00;99.90;;;;;;5081405;28;20223;-71
2022/08/04 09:36:22;;;;;;;2.73;1.57;;;17.00;99.90;;;;;;5095158;28;20545;-68
2022/08/04 09:39:01;;;;;;;3.03;1.77;;;17.00;99.90;;;;;;5095011;28;20176;-70
2022/08/04 09:41:50;;;;;;;5.77;2.43;;;17.00;99.90;;;;;;5095004;28;20661;-70
2022/08/04 09:44:44;;;;;;;2.33;1.60;;;16.90;99.90;;;;;;5094651;28;20167;-66
2022/08/04 09:47:38;;;;;;;5.43;2.10;;;16.90;99.90;;;;;;5095710;28;20545;-70
2022/08/04 09:50:38;;;;;;;2.70;2.00;;;17.00;99.90;;;;;;5095170;28;20197;-70
2022/08/04 09:53:30;;;;;;;5.53;2.10;;;17.00;99.90;;;;;;5094924;28;20584;-70
2022/08/04 09:56:13;;;;;;;6.27;2.37;;;17.10;99.90;;;;;;5094842;28;20649;-69
2022/08/04 09:59:16;;;;;;;2.33;1.67;;;17.10;99.90;;;;;;5094629;28;20511;-70
2022/08/04 10:01:46;;;;;;;5.33;2.30;;;17.10;99.90;;;;;;5088815;28;20226;-70
2022/08/04 10:04:18;;;;;;;2.37;1.57;;;17.10;99.90;;;;;;5093193;28;20182;-70
2022/08/04 10:07:19;;;;;;;3.43;1.70;;;17.20;99.90;;;;;;5094554;28;20175;-67
2022/08/04 10:10:17;;;;;;;2.70;1.20;;;17.30;99.90;;;;;;5094239;28;20247;-69
2022/08/04 10:12:59;;;;;;;1.67;1.20;;;17.30;99.90;;;;;;5094467;28;20183;-66
2022/08/04 10:15:56;;;;;;;2.40;1.47;;;17.30;99.90;;;;;;5094333;28;20168;-70
2022/08/04 10:18:58;;;;;;;1.27;0.90;;;17.40;99.90;;;;;;5076812;28;20262;-70
2022/08/04 10:22:02;;;;;;;0.87;0.87;;;17.30;99.90;;;;;;5094270;28;20202;-68
2022/08/04 10:24:35;;;;;;;3.90;1.80;;;17.30;99.90;;;;;;5094133;28;20675;-69
2022/08/04 10:27:37;;;;;;;4.87;1.50;;;17.30;99.90;;;;;;5094292;28;20220;-66
2022/08/04 10:30:13;;;;;;;1.67;1.30;;;17.20;99.90;;;;;;5094141;28;20175;-69
2022/08/04 10:33:10;;;;;;;2.63;1.63;;;17.30;99.90;;;;;;5108220;28;20232;-67
2022/08/04 10:36:12;;;;;;;3.77;1.47;;;17.30;99.90;;;;;;5114531;28;20175;-66
2022/08/04 10:39:23;;;;;;;2.13;1.43;;;17.30;99.90;;;;;;5053525;28;20228;-69
2022/08/04 10:42:21;;;;;;;1.63;1.20;;;17.30;99.90;;;;;;5082828;28;20664;-67
2022/08/04 10:45:14;;;;;;;1.13;0.97;;;17.30;99.90;;;;;;5113773;28;20565;-67
2022/08/04 10:48:05;;;;;;;2.97;1.70;;;17.30;99.90;;;;;;5114407;28;20171;-67
2022/08/04 10:50:37;;;;;;;1.73;1.00;;;17.20;99.90;;;;;;5113882;28;20174;-67
2022/08/04 10:53:18;;;;;;;1.40;0.80;;;17.20;99.90;;;;;;5114091;28;20174;-67
2022/08/04 10:56:09;;;;;;;2.50;1.30;;;17.20;99.90;;;;;;5113989;28;20215;-67
2022/08/04 10:58:49;;;;;;;2.17;1.13;;;17.20;99.90;;;;;;5103797;28;20680;-66
2022/08/04 11:01:44;;;;;;;2.37;1.00;;;17.20;99.90;;;;;;5113894;28;20455;-69
2022/08/04 11:04:45;;;;;;;1.63;1.27;;;17.20;99.90;;;;;;5113722;28;20171;-66
2022/08/04 11:07:15;;;;;;;1.33;1.00;;;17.20;99.90;;;;;;5113905;28;20213;-66
2022/08/04 11:09:45;;;;;;;1.23;0.97;;;17.20;99.90;;;;;;5095631;28;20178;-67
2022/08/04 11:12:26;;;;;;;0.80;0.80;;;17.30;99.90;;;;;;5095587;28;20174;-67
2022/08/04 11:15:03;;;;;;;2.37;0.70;;;17.30;99.90;;;;;;5113449;28;20640;-67
2022/08/04 11:17:41;;;;;;;2.13;0.93;;;17.30;99.90;;;;;;5113607;28;20641;-70
2022/08/04 11:20:26;;;;;;;1.80;1.00;;;17.30;99.90;;;;;;5095408;28;20526;-69
2022/08/04 11:23:16;;;;;;;0.90;0.80;;;17.30;99.90;;;;;;5113428;28;20210;-68
2022/08/04 11:26:09;;;;;;;1.50;0.80;;;17.20;99.90;;;;;;5113491;28;20180;-66
2022/08/04 11:28:43;;;;;;;1.23;1.07;;;17.20;99.90;;;;;;5113756;28;20166;-67
2022/08/04 11:31:13;;;;;;;4.30;1.10;;;17.20;99.90;;;;;;5113484;28;20178;-69
2022/08/04 11:33:51;;;;;;;1.70;1.23;;;17.10;99.90;;;;;;5095186;28;20183;-67
2022/08/04 11:36:30;;;;;;;2.43;1.20;;;17.10;99.90;;;;;;5113559;28;20476;-69
2022/08/04 11:39:13;;;;;;;1.07;0.97;;;17.10;99.90;;;;;;5113525;28;20197;-68
2022/08/04 11:42:09;;;;;;;1.50;1.00;;;17.10;99.90;;;;;;5113311;28;20214;-67
2022/08/04 11:45:04;;;;;;;1.67;1.10;;;17.10;99.90;;;;;;5113407;28;20231;-67
2022/08/04 11:47:45;;;;;;;1.67;0.70;;;17.10;99.90;;;;;;5111338;28;20182;-69
2022/08/04 11:50:28;;;;;;;0.90;0.80;;;17.10;99.90;;;;;;5113150;28;20166;-68
2022/08/04 11:52:58;;;;;;;0.90;0.73;;;17.00;99.90;;;;;;5113402;28;20203;-67
2022/08/04 11:55:30;;;;;;;0.80;0.80;;;17.00;99.90;;;;;;5094909;28;20200;-67
2022/08/04 11:57:58;;;;;;;2.23;1.10;;;17.00;99.90;;;;;;5113238;28;20166;-66
2022/08/04 12:00:30;;;;;;;1.10;0.90;;;17.00;99.90;;;;;;5113087;28;20638;-68
2022/08/04 12:03:01;;;;;;;2.60;1.20;;;16.90;99.90;;;;;;5113010;28;20304;-66
2022/08/04 12:05:43;;;;;;;2.83;1.17;;;16.90;99.90;;;;;;5112995;28;20167;-66
2022/08/04 12:09:18;;;;;;;1.00;0.83;;;16.90;99.90;;;;;;5113037;28;20171;-67
2022/08/04 12:11:48;;;;;;;1.40;1.10;;;16.90;99.90;;;;;;4986896;28;20196;-67
2022/08/04 12:14:47;;;;;;;1.77;1.00;;;16.80;99.90;;;;;;5010711;28;20178;-67
2022/08/04 12:17:34;;;;;;;1.63;1.07;;;16.80;99.90;;;;;;5085133;28;20213;-67
2022/08/04 12:20:05;;;;;;;0.80;0.80;;;16.80;99.90;;;;;;5094714;28;20178;-66
2022/08/04 12:22:46;;;;;;;2.03;0.90;;;16.80;99.90;;;;;;5094603;28;20218;-67
2022/08/04 12:25:39;;;;;;;1.37;0.90;;;16.80;99.90;;;;;;5113110;28;20604;-68
2022/08/04 12:28:19;;;;;;;0.77;0.77;;;16.80;99.90;;;;;;5115679;28;20711;-68
2022/08/04 12:30:55;;;;;;;0.97;0.80;;;16.80;99.90;;;;;;5116832;28;20346;-67
2022/08/04 12:34:00;;;;;;;2.53;0.80;;;16.70;99.90;;;;;;5116442;28;20261;-67
2022/08/04 12:36:28;;;;;;;1.03;0.80;;;16.70;99.90;;;;;;5113121;28;20197;-67
2022/08/04 12:39:19;;;;;;;1.10;0.80;;;16.70;99.90;;;;;;5116968;28;20197;-67
2022/08/04 12:42:14;;;;;;;2.50;1.00;;;16.70;99.90;;;;;;5106466;28;20218;-66
2022/08/04 12:44:45;;;;;;;1.17;0.80;;;16.70;99.90;;;;;;5116333;28;20167;-66
2022/08/04 12:47:15;;;;;;;0.83;0.77;;;16.80;99.90;;;;;;5098158;28;20708;-67
2022/08/04 12:49:47;;;;;;;1.43;0.90;;;16.70;99.90;;;;;;5116086;28;20177;-66
2022/08/04 12:52:17;;;;;;;1.30;0.90;;;16.80;99.90;;;;;;5116108;28;20178;-65
2022/08/04 12:54:48;;;;;;;1.13;0.90;;;16.90;99.90;;;;;;5097948;28;20178;-66
2022/08/04 12:57:17;;;;;;;2.90;1.00;;;16.90;99.90;;;;;;5116305;28;20167;-65
2022/08/04 12:59:46;;;;;;;1.13;0.90;;;16.90;99.90;;;;;;5116143;28;20225;-70
2022/08/04 13:02:30;;;;;;;2.17;1.00;;;16.90;99.90;;;;;;5116107;28;20594;-66
2022/08/04 13:05:06;;;;;;;2.27;0.87;;;16.90;99.90;;;;;;5116278;28;20179;-66
2022/08/04 13:07:52;;;;;;;1.00;0.80;;;16.90;99.90;;;;;;5108525;28;20187;-69
2022/08/04 13:10:23;;;;;;;1.43;0.90;;;17.00;99.90;;;;;;5096315;28;20271;-68
2022/08/04 13:13:01;;;;;;;2.20;0.90;;;17.00;99.90;;;;;;5107178;28;20233;-69
2022/08/04 13:15:29;;;;;;;2.27;0.83;;;16.90;99.90;;;;;;5105551;28;20270;-66
2022/08/04 13:18:01;;;;;;;5.13;1.20;;;16.90;99.90;;;;;;5106475;28;20188;-67
2022/08/04 13:20:33;;;;;;;1.53;0.97;;;16.90;99.90;;;;;;5115822;28;20171;-67
2022/08/04 13:23:13;;;;;;;1.37;1.03;;;17.00;99.90;;;;;;5115435;28;20259;-69
2022/08/04 13:25:53;;;;;;;1.70;1.10;;;17.00;99.90;;;;;;5115644;28;20193;-70
2022/08/04 13:28:25;;;;;;;0.70;0.70;;;17.00;99.90;;;;;;5112536;28;20194;-69
2022/08/04 13:31:01;;;;;;;2.93;0.80;;;17.00;99.90;;;;;;5112228;28;20183;-71
2022/08/04 13:33:35;;;;;;;0.80;0.60;;;17.00;99.90;;;;;;5095014;28;20198;-69
2022/08/04 13:36:03;;;;;;;2.27;0.77;;;17.10;99.90;;;;;;5095059;28;20174;-70
2022/08/04 13:38:32;;;;;;;0.83;0.80;;;17.10;99.90;;;;;;5110098;28;20182;-69
2022/08/04 13:41:04;;;;;;;0.80;0.80;;;17.10;99.90;;;;;;5115118;28;20328;-68
2022/08/04 13:43:44;;;;;;;3.07;1.00;;;17.10;99.90;;;;;;5104068;28;20175;-71
2022/08/04 13:46:34;;;;;;;1.13;0.70;;;17.10;99.90;;;;;;5108118;28;20174;-70
2022/08/04 13:49:07;;;;;;;0.93;0.83;;;17.20;99.90;;;;;;5092616;28;20178;-71
2022/08/04 13:51:36;;;;;;;0.70;0.70;;;17.20;99.90;;;;;;5094852;28;20183;-70
2022/08/04 13:54:04;;;;;;;0.57;0.57;;;17.20;99.90;;;;;;5076663;28;20611;-71
2022/08/04 13:56:47;;;;;;;0.63;0.60;;;17.20;99.90;;;;;;5077382;28;20167;-70